createdAt,value
2018-03-07T00:00:12.818Z,925.05
2018-03-07T00:01:12.808Z,925.01
2018-03-07T00:02:12.811Z,925.00
2018-03-07T00:03:12.798Z,925.02
2018-03-07T00:04:12.784Z,925.01
2018-03-07T00:05:12.773Z,925.02
2018-03-07T00:06:12.765Z,925.03
2018-03-07T00:07:12.796Z,925.00
2018-03-07T00:08:12.748Z,925.06
2018-03-07T00:09:12.740Z,925.01
2018-03-07T00:10:12.729Z,925.04
2018-03-07T00:11:12.722Z,925.06
2018-03-07T00:12:12.721Z,925.08
2018-03-07T00:13:12.704Z,925.03
2018-03-07T00:14:12.695Z,925.07
2018-03-07T00:15:12.690Z,925.09
2018-03-07T00:16:12.678Z,925.06
2018-03-07T00:17:12.667Z,925.08
2018-03-07T00:18:12.659Z,925.06
2018-03-07T00:19:12.653Z,925.06
2018-03-07T00:20:12.646Z,925.11
2018-03-07T00:21:12.633Z,925.06
2018-03-07T00:22:12.626Z,925.08
2018-03-07T00:23:12.613Z,925.06
2018-03-07T00:24:12.631Z,925.08
2018-03-07T00:25:12.599Z,925.05
2018-03-07T00:26:12.596Z,925.09
2018-03-07T00:27:12.583Z,925.09
2018-03-07T00:28:12.574Z,925.07
2018-03-07T00:29:12.566Z,925.07
2018-03-07T00:30:12.560Z,925.05
2018-03-07T00:31:12.548Z,925.07
2018-03-07T00:32:12.540Z,925.08
2018-03-07T00:33:19.767Z,925.09
2018-03-07T00:35:05.423Z,925.07
2018-03-07T00:36:05.398Z,925.10
2018-03-07T00:37:58.335Z,925.08
2018-03-07T00:38:58.307Z,925.10
2018-03-07T00:39:58.292Z,925.13
2018-03-07T00:40:58.286Z,925.12
2018-03-07T00:41:58.284Z,925.09
2018-03-07T00:42:58.269Z,925.13
2018-03-07T00:43:58.257Z,925.14
2018-03-07T00:44:58.252Z,925.11
2018-03-07T00:45:58.244Z,925.12
2018-03-07T00:46:58.233Z,925.15
2018-03-07T00:47:58.229Z,925.19
2018-03-07T00:48:58.219Z,925.19
2018-03-07T00:49:58.208Z,925.18
2018-03-07T00:50:58.198Z,925.17
2018-03-07T00:51:58.187Z,925.20
2018-03-07T00:52:58.177Z,925.21
2018-03-07T00:53:58.172Z,925.19
2018-03-07T00:54:58.163Z,925.17
2018-03-07T00:55:58.154Z,925.18
2018-03-07T00:56:58.146Z,925.13
2018-03-07T00:57:58.134Z,925.18
2018-03-07T00:58:58.122Z,925.16
2018-03-07T00:59:58.114Z,925.19
2018-03-07T01:00:58.112Z,925.16
2018-03-07T01:01:58.099Z,925.16
2018-03-07T01:02:58.095Z,925.14
2018-03-07T01:03:58.084Z,925.14
2018-03-07T01:04:58.071Z,925.13
2018-03-07T01:05:58.076Z,925.10
2018-03-07T01:06:58.063Z,925.14
2018-03-07T01:07:58.048Z,925.13
2018-03-07T01:08:58.048Z,925.10
2018-03-07T01:09:58.029Z,925.11
2018-03-07T01:10:58.020Z,925.12
2018-03-07T01:11:58.006Z,925.13
2018-03-07T01:12:58.000Z,925.10
2018-03-07T01:13:57.994Z,925.13
2018-03-07T01:14:57.985Z,925.12
2018-03-07T01:15:57.977Z,925.13
2018-03-07T01:16:57.966Z,925.16
2018-03-07T01:17:57.947Z,925.11
2018-03-07T01:18:57.944Z,925.15
2018-03-07T01:19:57.936Z,925.13
2018-03-07T01:20:57.930Z,925.16
2018-03-07T01:21:57.917Z,925.17
2018-03-07T01:22:57.911Z,925.17
2018-03-07T01:23:57.900Z,925.13
2018-03-07T01:24:57.893Z,925.19
2018-03-07T01:25:57.881Z,925.14
2018-03-07T01:26:57.873Z,925.18
2018-03-07T01:27:57.862Z,925.17
2018-03-07T01:28:57.856Z,925.16
2018-03-07T01:29:57.850Z,925.14
2018-03-07T01:30:57.838Z,925.15
2018-03-07T01:31:57.839Z,925.16
2018-03-07T01:32:57.819Z,925.17
2018-03-07T02:05:51.260Z,925.01
2018-03-07T02:06:51.226Z,924.98
2018-03-07T02:08:44.114Z,925.03
2018-03-07T02:09:44.083Z,925.02
2018-03-07T02:11:36.964Z,925.02
2018-03-07T02:12:36.933Z,925.03
2018-03-07T02:14:29.819Z,925.05
2018-03-07T02:15:29.790Z,925.10
2018-03-07T02:17:22.670Z,925.12
2018-03-07T02:18:22.648Z,925.10
2018-03-07T02:20:15.580Z,925.12
2018-03-07T02:21:15.582Z,925.14
2018-03-07T02:23:08.486Z,925.14
2018-03-07T02:24:08.458Z,925.13
2018-03-07T02:26:01.381Z,925.10
2018-03-07T02:27:01.352Z,925.10
2018-03-07T02:28:54.264Z,925.12
2018-03-07T02:29:54.250Z,925.10
2018-03-07T02:31:47.144Z,925.09
2018-03-07T02:32:47.118Z,925.11
2018-03-07T02:34:40.061Z,925.05
2018-03-07T02:35:40.016Z,925.00
2018-03-07T02:37:32.938Z,925.06
2018-03-07T02:38:32.919Z,925.00
2018-03-07T02:40:25.886Z,925.02
2018-03-07T02:41:25.879Z,925.01
2018-03-07T02:43:18.741Z,925.05
2018-03-07T02:44:18.724Z,925.07
2018-03-07T02:46:11.658Z,925.06
2018-03-07T02:47:11.629Z,925.05
2018-03-07T02:49:04.557Z,925.05
2018-03-07T02:50:04.535Z,925.01
2018-03-07T02:51:57.466Z,925.00
2018-03-07T02:52:57.430Z,925.01
2018-03-07T02:54:50.350Z,925.05
2018-03-07T02:55:50.334Z,925.04
2018-03-07T02:57:43.265Z,925.04
2018-03-07T02:58:43.229Z,925.08
2018-03-07T03:00:36.105Z,925.03
2018-03-07T03:01:36.092Z,925.08
2018-03-07T03:03:29.025Z,925.09
2018-03-07T03:04:28.999Z,925.10
2018-03-07T03:06:21.920Z,925.14
2018-03-07T03:07:21.904Z,925.12
2018-03-07T03:09:14.816Z,925.16
2018-03-07T03:10:15.756Z,925.16
2018-03-07T03:12:07.725Z,925.17
2018-03-07T03:13:07.708Z,925.16
2018-03-07T03:15:00.623Z,925.18
2018-03-07T03:16:00.606Z,925.15
2018-03-07T03:17:53.514Z,925.14
2018-03-07T03:18:53.494Z,925.16
2018-03-07T03:20:46.432Z,925.15
2018-03-07T03:21:46.407Z,925.15
2018-03-07T03:23:39.297Z,925.15
2018-03-07T03:24:39.267Z,925.20
2018-03-07T03:26:32.157Z,925.24
2018-03-07T03:27:32.134Z,925.21
2018-03-07T03:29:25.041Z,925.24
2018-03-07T03:30:25.008Z,925.27
2018-03-07T03:32:17.943Z,925.33
2018-03-07T03:33:17.915Z,925.33
2018-03-07T03:35:10.822Z,925.28
2018-03-07T03:36:10.813Z,925.33
2018-03-07T03:38:03.711Z,925.37
2018-03-07T03:39:03.683Z,925.38
2018-03-07T03:40:56.582Z,925.41
2018-03-07T03:41:56.568Z,925.43
2018-03-07T03:43:49.499Z,925.46
2018-03-07T03:44:49.489Z,925.49
2018-03-07T03:46:43.360Z,925.50
2018-03-07T03:47:43.347Z,925.49
2018-03-07T03:49:36.266Z,925.47
2018-03-07T03:50:36.228Z,925.51
2018-03-07T03:52:29.125Z,925.50
2018-03-07T03:53:29.104Z,925.51
2018-03-07T03:55:22.018Z,925.50
2018-03-07T03:56:21.993Z,925.50
2018-03-07T03:58:14.942Z,925.48
2018-03-07T03:59:14.904Z,925.49
2018-03-07T04:01:07.830Z,925.54
2018-03-07T04:02:07.804Z,925.56
2018-03-07T04:04:00.747Z,925.61
2018-03-07T04:05:00.714Z,925.59
2018-03-07T04:06:53.630Z,925.59
2018-03-07T04:07:53.614Z,925.57
2018-03-07T04:09:46.540Z,925.60
2018-03-07T04:10:46.514Z,925.64
2018-03-07T04:12:39.402Z,925.63
2018-03-07T04:13:39.381Z,925.55
2018-03-07T04:15:32.294Z,925.60
2018-03-07T04:16:32.263Z,925.63
2018-03-07T04:17:32.257Z,925.64
2018-03-07T04:18:32.247Z,925.65
2018-03-07T04:19:32.246Z,925.60
2018-03-07T04:20:32.226Z,925.63
2018-03-07T04:21:32.219Z,925.61
2018-03-07T04:22:32.217Z,925.62
2018-03-07T04:23:32.200Z,925.65
2018-03-07T04:24:32.190Z,925.63
2018-03-07T04:25:32.232Z,925.64
2018-03-07T04:26:32.174Z,925.60
2018-03-07T04:27:32.164Z,925.60
2018-03-07T04:28:32.155Z,925.62
2018-03-07T04:29:32.146Z,925.60
2018-03-07T04:30:32.135Z,925.59
2018-03-07T04:31:32.126Z,925.60
2018-03-07T04:32:32.116Z,925.60
2018-03-07T04:33:32.109Z,925.59
2018-03-07T04:34:32.101Z,925.62
2018-03-07T04:35:32.080Z,925.60
2018-03-07T04:36:32.087Z,925.57
2018-03-07T04:37:32.073Z,925.60
2018-03-07T04:38:32.064Z,925.61
2018-03-07T04:39:32.053Z,925.70
2018-03-07T04:40:32.044Z,925.74
2018-03-07T04:41:32.032Z,925.68
2018-03-07T04:42:32.025Z,925.72
2018-03-07T04:43:32.016Z,925.69
2018-03-07T04:44:32.010Z,925.71
2018-03-07T04:45:31.999Z,925.73
2018-03-07T04:46:31.994Z,925.73
2018-03-07T04:47:31.979Z,925.73
2018-03-07T04:48:31.972Z,925.69
2018-03-07T04:49:31.959Z,925.71
2018-03-07T04:50:31.954Z,925.73
2018-03-07T04:51:31.941Z,925.76
2018-03-07T04:52:31.931Z,925.74
2018-03-07T04:53:31.925Z,925.78
2018-03-07T04:54:31.925Z,925.84
2018-03-07T04:55:31.903Z,925.82
2018-03-07T04:56:31.884Z,925.86
2018-03-07T04:57:31.886Z,925.84
2018-03-07T04:58:31.875Z,925.85
2018-03-07T04:59:31.867Z,925.88
2018-03-07T05:00:31.857Z,925.90
2018-03-07T05:01:31.854Z,925.84
2018-03-07T05:02:31.840Z,925.86
2018-03-07T05:03:31.828Z,925.90
2018-03-07T05:04:31.823Z,925.87
2018-03-07T05:05:31.808Z,925.88
2018-03-07T05:06:31.801Z,925.91
2018-03-07T05:07:31.793Z,925.88
2018-03-07T05:08:31.781Z,925.94
2018-03-07T05:09:31.775Z,925.86
2018-03-07T05:10:31.787Z,925.95
2018-03-07T05:11:31.761Z,925.91
2018-03-07T05:12:31.744Z,925.94
2018-03-07T05:13:31.737Z,925.95
2018-03-07T05:14:31.730Z,926.00
2018-03-07T05:15:31.720Z,926.01
2018-03-07T05:16:31.714Z,926.06
2018-03-07T05:17:31.700Z,926.02
2018-03-07T05:18:31.690Z,925.98
2018-03-07T05:19:31.679Z,926.01
2018-03-07T05:20:31.676Z,925.99
2018-03-07T05:21:31.663Z,926.01
2018-03-07T05:22:31.670Z,926.04
2018-03-07T05:23:31.650Z,926.02
2018-03-07T05:24:31.633Z,926.02
2018-03-07T05:25:31.628Z,926.06
2018-03-07T05:26:31.617Z,926.06
2018-03-07T05:27:31.608Z,926.07
2018-03-07T05:28:31.601Z,926.05
2018-03-07T05:29:31.591Z,926.11
2018-03-07T05:30:31.581Z,926.15
2018-03-07T05:31:31.570Z,926.18
2018-03-07T05:32:31.561Z,926.19
2018-03-07T05:33:31.555Z,926.17
2018-03-07T05:34:31.546Z,926.20
2018-03-07T05:35:31.538Z,926.21
2018-03-07T05:36:31.524Z,926.23
2018-03-07T05:37:31.520Z,926.24
2018-03-07T05:38:31.507Z,926.27
2018-03-07T05:39:31.497Z,926.21
2018-03-07T05:40:32.247Z,926.23
2018-03-07T05:41:31.481Z,926.21
2018-03-07T05:42:31.472Z,926.23
2018-03-07T05:43:31.460Z,926.23
2018-03-07T05:44:31.454Z,926.26
2018-03-07T05:45:31.451Z,926.27
2018-03-07T05:46:31.458Z,926.28
2018-03-07T05:47:31.424Z,926.25
2018-03-07T05:48:31.417Z,926.26
2018-03-07T05:49:31.430Z,926.27
2018-03-07T05:50:31.399Z,926.23
2018-03-07T05:51:31.390Z,926.23
2018-03-07T05:52:31.380Z,926.22
2018-03-07T05:53:31.372Z,926.25
2018-03-07T05:54:31.361Z,926.27
2018-03-07T05:55:31.350Z,926.28
2018-03-07T05:56:31.346Z,926.29
2018-03-07T05:57:31.336Z,926.34
2018-03-07T05:58:31.324Z,926.29
2018-03-07T05:59:31.317Z,926.31
2018-03-07T06:00:31.306Z,926.30
2018-03-07T06:01:31.295Z,926.30
2018-03-07T06:02:31.287Z,926.34
2018-03-07T06:03:31.278Z,926.34
2018-03-07T06:04:31.268Z,926.38
2018-03-07T06:05:31.262Z,926.34
2018-03-07T06:06:31.250Z,926.38
2018-03-07T06:07:31.244Z,926.42
2018-03-07T06:08:31.232Z,926.39
2018-03-07T06:09:31.221Z,926.41
2018-03-07T06:10:31.215Z,926.45
2018-03-07T06:11:31.205Z,926.47
2018-03-07T06:12:31.199Z,926.54
2018-03-07T06:13:31.194Z,926.52
2018-03-07T06:14:31.178Z,926.56
2018-03-07T06:15:31.167Z,926.57
2018-03-07T06:16:31.162Z,926.54
2018-03-07T06:17:31.150Z,926.56
2018-03-07T06:18:31.142Z,926.56
2018-03-07T06:19:31.127Z,926.59
2018-03-07T06:20:31.123Z,926.55
2018-03-07T06:21:31.114Z,926.59
2018-03-07T06:22:31.103Z,926.64
2018-03-07T06:23:31.093Z,926.64
2018-03-07T06:24:33.820Z,926.65
2018-03-07T06:25:31.075Z,926.65
2018-03-07T06:26:31.070Z,926.71
2018-03-07T06:27:31.060Z,926.72
2018-03-07T06:28:31.047Z,926.73
2018-03-07T06:29:31.034Z,926.71
2018-03-07T06:30:31.030Z,926.72
2018-03-07T06:31:31.020Z,926.71
2018-03-07T06:32:31.009Z,926.69
2018-03-07T06:33:31.000Z,926.78
2018-03-07T06:34:31.002Z,926.76
2018-03-07T06:35:30.988Z,926.80
2018-03-07T06:36:30.976Z,926.82
2018-03-07T06:37:30.969Z,926.83
2018-03-07T06:38:30.981Z,926.82
2018-03-07T06:39:30.950Z,926.83
2018-03-07T06:40:30.938Z,926.84
2018-03-07T06:41:30.943Z,926.89
2018-03-07T06:42:30.915Z,926.89
2018-03-07T06:43:30.913Z,926.93
2018-03-07T06:44:30.907Z,926.93
2018-03-07T06:45:30.888Z,926.88
2018-03-07T06:46:30.935Z,926.87
2018-03-07T06:47:30.881Z,926.94
2018-03-07T06:48:30.870Z,926.94
2018-03-07T06:49:30.859Z,926.97
2018-03-07T06:50:30.853Z,927.00
2018-03-07T06:51:30.845Z,927.02
2018-03-07T06:52:30.838Z,927.00
2018-03-07T06:53:30.827Z,927.08
2018-03-07T06:54:30.819Z,927.06
2018-03-07T06:55:30.811Z,927.10
2018-03-07T06:56:30.799Z,927.08
2018-03-07T06:57:30.799Z,927.11
2018-03-07T06:58:30.783Z,927.12
2018-03-07T06:59:30.772Z,927.10
2018-03-07T07:00:30.765Z,927.18
2018-03-07T07:01:30.757Z,927.15
2018-03-07T07:02:30.753Z,927.18
2018-03-07T07:03:30.738Z,927.11
2018-03-07T07:04:30.749Z,927.21
2018-03-07T07:05:30.751Z,927.21
2018-03-07T07:06:30.721Z,927.20
2018-03-07T07:07:30.708Z,927.23
2018-03-07T07:08:30.697Z,927.22
2018-03-07T07:09:30.721Z,927.26
2018-03-07T07:10:30.683Z,927.28
2018-03-07T07:11:30.676Z,927.29
2018-03-07T07:12:30.673Z,927.24
2018-03-07T07:13:30.659Z,927.26
2018-03-07T07:14:30.651Z,927.31
2018-03-07T07:15:30.659Z,927.35
2018-03-07T07:16:30.636Z,927.36
2018-03-07T07:17:30.626Z,927.42
2018-03-07T07:18:30.626Z,927.41
2018-03-07T07:19:30.611Z,927.43
2018-03-07T07:20:30.605Z,927.48
2018-03-07T07:21:30.592Z,927.43
2018-03-07T07:22:30.584Z,927.50
2018-03-07T07:23:30.576Z,927.49
2018-03-07T07:24:30.572Z,927.48
2018-03-07T07:25:30.559Z,927.51
2018-03-07T07:26:30.554Z,927.52
2018-03-07T07:27:30.547Z,927.51
2018-03-07T07:28:30.539Z,927.58
2018-03-07T07:29:30.532Z,927.58
2018-03-07T07:30:30.523Z,927.62
2018-03-07T07:31:30.516Z,927.64
2018-03-07T07:32:30.510Z,927.60
2018-03-07T07:33:30.501Z,927.69
2018-03-07T07:34:30.493Z,927.68
2018-03-07T07:35:30.484Z,927.69
2018-03-07T07:36:30.488Z,927.74
2018-03-07T07:37:30.493Z,927.72
2018-03-07T07:38:30.468Z,927.76
2018-03-07T07:39:30.462Z,927.75
2018-03-07T07:40:30.453Z,927.82
2018-03-07T07:41:30.440Z,927.80
2018-03-07T07:42:30.440Z,927.84
2018-03-07T07:43:30.433Z,927.84
2018-03-07T07:44:30.425Z,927.78
2018-03-07T07:45:30.417Z,927.81
2018-03-07T07:46:30.414Z,927.84
2018-03-07T07:47:30.405Z,927.84
2018-03-07T07:48:30.402Z,927.83
2018-03-07T07:49:30.394Z,927.92
2018-03-07T07:50:30.398Z,927.88
2018-03-07T07:51:30.382Z,927.92
2018-03-07T07:52:30.375Z,927.89
2018-03-07T07:53:30.367Z,927.91
2018-03-07T07:54:30.383Z,927.92
2018-03-07T07:55:30.354Z,927.93
2018-03-07T07:56:30.352Z,927.94
2018-03-07T07:57:30.344Z,927.89
2018-03-07T07:58:30.348Z,927.99
2018-03-07T07:59:30.329Z,928.00
2018-03-07T08:00:30.328Z,927.95
2018-03-07T08:01:30.320Z,927.97
2018-03-07T08:02:30.315Z,928.01
2018-03-07T08:03:30.308Z,927.95
2018-03-07T08:04:30.299Z,927.93
2018-03-07T08:05:30.299Z,927.94
2018-03-07T08:06:30.290Z,928.00
2018-03-07T08:07:30.286Z,928.04
2018-03-07T08:08:30.280Z,928.02
2018-03-07T08:09:30.277Z,928.02
2018-03-07T08:10:30.271Z,928.07
2018-03-07T08:11:30.268Z,928.07
2018-03-07T08:12:30.765Z,928.12
2018-03-07T08:13:30.255Z,928.12
2018-03-07T08:14:30.253Z,928.08
2018-03-07T08:15:30.248Z,928.13
2018-03-07T08:16:30.242Z,928.16
2018-03-07T08:17:30.238Z,928.15
2018-03-07T08:18:30.236Z,928.15
2018-03-07T08:19:30.234Z,928.17
2018-03-07T08:20:30.226Z,928.20
2018-03-07T08:21:30.235Z,928.21
2018-03-07T08:22:30.222Z,928.25
2018-03-07T08:23:30.217Z,928.22
2018-03-07T08:24:30.220Z,928.24
2018-03-07T08:25:30.212Z,928.21
2018-03-07T08:26:30.209Z,928.25
2018-03-07T08:27:30.206Z,928.24
2018-03-07T08:28:30.198Z,928.16
2018-03-07T08:29:30.212Z,928.21
2018-03-07T08:30:30.194Z,928.25
2018-03-07T08:31:30.190Z,928.18
2018-03-07T08:32:30.189Z,928.12
2018-03-07T08:33:30.181Z,928.22
2018-03-07T08:34:30.185Z,928.19
2018-03-07T08:35:30.181Z,928.22
2018-03-07T08:36:30.179Z,928.20
2018-03-07T08:37:30.177Z,928.26
2018-03-07T08:38:30.176Z,928.25
2018-03-07T08:39:30.172Z,928.23
2018-03-07T08:40:30.172Z,928.23
2018-03-07T08:41:30.169Z,928.21
2018-03-07T08:42:30.170Z,928.23
2018-03-07T08:43:30.164Z,928.19
2018-03-07T08:44:30.170Z,928.21
2018-03-07T08:45:30.161Z,928.17
2018-03-07T08:46:30.166Z,928.21
2018-03-07T08:47:30.160Z,928.29
2018-03-07T08:48:30.163Z,928.32
2018-03-07T08:49:30.156Z,928.27
2018-03-07T08:50:30.160Z,928.27
2018-03-07T08:51:30.156Z,928.22
2018-03-07T08:52:30.154Z,928.18
2018-03-07T08:53:30.157Z,928.26
2018-03-07T08:54:30.157Z,928.34
2018-03-07T08:55:30.155Z,928.28
2018-03-07T08:56:30.169Z,928.26
2018-03-07T08:57:30.154Z,928.23
2018-03-07T08:58:30.166Z,928.29
2018-03-07T08:59:30.156Z,928.35
2018-03-07T09:00:30.160Z,928.36
2018-03-07T09:01:30.203Z,928.33
2018-03-07T09:02:30.162Z,928.28
2018-03-07T09:03:30.161Z,928.38
2018-03-07T09:04:30.164Z,928.44
2018-03-07T09:05:30.161Z,928.43
2018-03-07T09:06:30.163Z,928.37
2018-03-07T09:07:30.169Z,928.38
2018-03-07T09:08:30.169Z,928.48
2018-03-07T09:09:30.171Z,928.36
2018-03-07T09:10:30.174Z,928.45
2018-03-07T09:11:30.174Z,928.49
2018-03-07T09:12:30.182Z,928.53
2018-03-07T09:13:30.202Z,928.52
2018-03-07T09:14:30.206Z,928.52
2018-03-07T09:15:30.208Z,928.52
2018-03-07T09:16:30.189Z,928.55
2018-03-07T09:17:30.192Z,928.56
2018-03-07T09:18:30.194Z,928.51
2018-03-07T09:19:30.200Z,928.47
2018-03-07T09:20:30.203Z,928.55
2018-03-07T09:21:30.211Z,928.53
2018-03-07T09:22:30.220Z,928.53
2018-03-07T09:23:30.226Z,928.53
2018-03-07T09:24:30.232Z,928.44
2018-03-07T09:25:30.236Z,928.49
2018-03-07T09:26:30.294Z,928.48
2018-03-07T09:27:30.264Z,928.55
2018-03-07T09:28:30.300Z,928.49
2018-03-07T09:29:30.254Z,928.53
2018-03-07T09:30:30.268Z,928.53
2018-03-07T09:31:30.274Z,928.53
2018-03-07T09:32:30.280Z,928.67
2018-03-07T09:33:30.291Z,928.55
2018-03-07T09:34:30.291Z,928.63
2018-03-07T09:35:30.297Z,928.58
2018-03-07T09:36:30.321Z,928.62
2018-03-07T09:37:30.327Z,928.63
2018-03-07T09:38:30.312Z,928.59
2018-03-07T09:39:30.315Z,928.57
2018-03-07T09:40:30.322Z,928.58
2018-03-07T09:41:30.328Z,928.60
2018-03-07T09:42:30.335Z,928.62
2018-03-07T09:43:30.333Z,928.67
2018-03-07T09:44:30.340Z,928.69
2018-03-07T09:45:30.346Z,928.71
2018-03-07T09:46:30.350Z,928.75
2018-03-07T09:47:30.358Z,928.74
2018-03-07T09:48:30.362Z,928.69
2018-03-07T09:49:30.372Z,928.75
2018-03-07T09:50:30.386Z,928.65
2018-03-07T09:51:30.382Z,928.63
2018-03-07T09:52:30.382Z,928.68
2018-03-07T09:53:30.386Z,928.72
2018-03-07T09:54:30.391Z,928.74
2018-03-07T09:55:30.402Z,928.74
2018-03-07T09:56:30.464Z,928.79
2018-03-07T09:57:30.407Z,928.80
2018-03-07T09:58:30.414Z,928.90
2018-03-07T09:59:30.412Z,928.90
2018-03-07T10:00:30.416Z,928.85
2018-03-07T10:01:30.415Z,928.89
2018-03-07T10:02:30.423Z,928.88
2018-03-07T10:03:30.421Z,928.84
2018-03-07T10:04:30.422Z,928.84
2018-03-07T10:05:30.427Z,928.89
2018-03-07T10:06:30.428Z,928.80
2018-03-07T10:07:30.436Z,928.96
2018-03-07T10:08:30.438Z,928.89
2018-03-07T10:09:30.442Z,928.90
2018-03-07T10:10:30.442Z,929.00
2018-03-07T10:11:30.444Z,928.94
2018-03-07T10:12:30.451Z,929.03
2018-03-07T10:13:30.459Z,928.93
2018-03-07T10:14:30.513Z,928.91
2018-03-07T10:15:30.465Z,928.99
2018-03-07T10:16:30.491Z,929.00
2018-03-07T10:17:30.477Z,928.98
2018-03-07T10:18:30.483Z,928.99
2018-03-07T10:19:30.489Z,928.95
2018-03-07T10:20:30.494Z,929.06
2018-03-07T10:21:30.503Z,929.01
2018-03-07T10:22:30.508Z,929.02
2018-03-07T10:23:30.529Z,929.01
2018-03-07T10:24:30.537Z,929.00
2018-03-07T10:25:30.524Z,928.96
2018-03-07T10:26:30.529Z,929.04
2018-03-07T10:27:30.533Z,929.04
2018-03-07T10:28:30.536Z,929.08
2018-03-07T10:29:30.543Z,929.04
2018-03-07T10:30:30.547Z,928.98
2018-03-07T10:31:30.552Z,929.08
2018-03-07T10:32:30.554Z,929.01
2018-03-07T10:33:30.557Z,928.99
2018-03-07T10:34:30.557Z,929.05
2018-03-07T10:35:30.549Z,929.10
2018-03-07T10:36:30.561Z,929.11
2018-03-07T10:37:30.562Z,929.05
2018-03-07T10:38:30.567Z,929.21
2018-03-07T10:39:30.563Z,929.14
2018-03-07T10:40:30.564Z,929.22
2018-03-07T10:41:30.564Z,929.20
2018-03-07T10:42:30.562Z,929.21
2018-03-07T10:43:30.574Z,929.17
2018-03-07T10:44:30.565Z,929.23
2018-03-07T10:45:30.565Z,929.11
2018-03-07T10:46:30.575Z,929.20
2018-03-07T10:47:30.561Z,929.27
2018-03-07T10:48:30.561Z,929.24
2018-03-07T10:49:30.562Z,929.24
2018-03-07T10:50:30.566Z,929.28
2018-03-07T10:51:30.550Z,929.28
2018-03-07T10:52:30.563Z,929.32
2018-03-07T10:53:30.562Z,929.30
2018-03-07T10:54:30.562Z,929.33
2018-03-07T10:55:30.551Z,929.30
2018-03-07T10:56:30.559Z,929.26
2018-03-07T10:57:30.558Z,929.32
2018-03-07T10:58:30.562Z,929.31
2018-03-07T10:59:30.555Z,929.38
2018-03-07T11:00:30.556Z,929.34
2018-03-07T11:01:30.554Z,929.39
2018-03-07T11:02:30.558Z,929.37
2018-03-07T11:03:30.553Z,929.34
2018-03-07T11:04:30.555Z,929.34
2018-03-07T11:05:30.554Z,929.38
2018-03-07T11:06:30.555Z,929.36
2018-03-07T11:07:30.548Z,929.40
2018-03-07T11:08:30.553Z,929.42
2018-03-07T11:09:30.548Z,929.47
2018-03-07T11:10:30.544Z,929.47
2018-03-07T11:11:30.548Z,929.52
2018-03-07T11:12:30.546Z,929.50
2018-03-07T11:13:30.545Z,929.39
2018-03-07T11:14:30.546Z,929.48
2018-03-07T11:15:30.544Z,929.52
2018-03-07T11:16:30.541Z,929.52
2018-03-07T11:17:30.546Z,929.53
2018-03-07T11:18:30.554Z,929.53
2018-03-07T11:19:30.539Z,929.54
2018-03-07T11:20:30.537Z,929.56
2018-03-07T11:21:30.540Z,929.52
2018-03-07T11:22:30.541Z,929.51
2018-03-07T11:23:30.533Z,929.56
2018-03-07T11:24:30.559Z,929.56
2018-03-07T11:25:30.534Z,929.57
2018-03-07T11:26:30.556Z,929.55
2018-03-07T11:27:30.532Z,929.57
2018-03-07T11:28:30.577Z,929.60
2018-03-07T11:29:30.535Z,929.64
2018-03-07T11:30:30.527Z,929.67
2018-03-07T11:31:30.526Z,929.64
2018-03-07T11:32:30.523Z,929.65
2018-03-07T11:33:30.526Z,929.65
2018-03-07T11:34:30.530Z,929.68
2018-03-07T11:35:30.520Z,929.70
2018-03-07T11:36:30.525Z,929.72
2018-03-07T11:37:30.516Z,929.63
2018-03-07T11:38:30.533Z,929.61
2018-03-07T11:39:30.518Z,929.61
2018-03-07T11:40:30.514Z,929.61
2018-03-07T11:41:30.511Z,929.61
2018-03-07T11:42:30.514Z,929.63
2018-03-07T11:43:30.512Z,929.66
2018-03-07T11:44:30.513Z,929.59
2018-03-07T11:45:30.505Z,929.62
2018-03-07T11:46:30.504Z,929.60
2018-03-07T11:47:30.504Z,929.64
2018-03-07T11:48:30.501Z,929.64
2018-03-07T11:49:30.496Z,929.65
2018-03-07T11:50:30.503Z,929.66
2018-03-07T11:51:30.494Z,929.72
2018-03-07T11:52:30.493Z,929.68
2018-03-07T11:53:30.491Z,929.61
2018-03-07T11:54:30.490Z,929.62
2018-03-07T11:55:30.487Z,929.64
2018-03-07T11:56:30.488Z,929.64
2018-03-07T11:57:30.483Z,929.66
2018-03-07T11:58:30.501Z,929.68
2018-03-07T11:59:30.468Z,929.68
2018-03-07T12:00:30.476Z,929.64
2018-03-07T12:01:30.476Z,929.69
2018-03-07T12:02:30.473Z,929.65
2018-03-07T12:03:30.468Z,929.65
2018-03-07T12:04:30.468Z,929.66
2018-03-07T12:05:30.466Z,929.65
2018-03-07T12:06:30.493Z,929.66
2018-03-07T12:07:30.456Z,929.63
2018-03-07T12:08:30.460Z,929.64
2018-03-07T12:09:30.457Z,929.64
2018-03-07T12:10:30.452Z,929.65
2018-03-07T12:11:30.455Z,929.66
2018-03-07T12:12:30.452Z,929.61
2018-03-07T12:13:30.447Z,929.61
2018-03-07T12:14:30.493Z,929.65
2018-03-07T12:15:30.442Z,929.63
2018-03-07T12:16:30.465Z,929.68
2018-03-07T12:17:30.428Z,929.71
2018-03-07T12:18:30.438Z,929.63
2018-03-07T12:19:30.488Z,929.64
2018-03-07T12:20:30.431Z,929.66
2018-03-07T12:21:30.431Z,929.59
2018-03-07T12:22:30.511Z,929.59
2018-03-07T12:23:30.426Z,929.62
2018-03-07T12:24:30.423Z,929.69
2018-03-07T12:25:30.420Z,929.66
2018-03-07T12:26:30.418Z,929.62
2018-03-07T12:27:30.462Z,929.60
2018-03-07T12:28:30.418Z,929.58
2018-03-07T12:29:30.418Z,929.58
2018-03-07T12:30:30.411Z,929.58
2018-03-07T12:31:30.409Z,929.60
2018-03-07T12:32:30.408Z,929.57
2018-03-07T12:33:30.401Z,929.57
2018-03-07T12:34:30.403Z,929.61
2018-03-07T12:35:30.397Z,929.61
2018-03-07T12:36:30.394Z,929.58
2018-03-07T12:37:30.392Z,929.59
2018-03-07T12:38:30.391Z,929.60
2018-03-07T12:39:30.388Z,929.59
2018-03-07T12:40:30.384Z,929.61
2018-03-07T12:41:30.381Z,929.66
2018-03-07T12:42:30.380Z,929.69
2018-03-07T12:43:30.379Z,929.64
2018-03-07T12:44:30.371Z,929.62
2018-03-07T12:45:30.373Z,929.64
2018-03-07T12:46:30.365Z,929.59
2018-03-07T12:47:30.362Z,929.58
2018-03-07T12:48:30.362Z,929.54
2018-03-07T12:49:30.358Z,929.57
2018-03-07T12:50:30.359Z,929.53
2018-03-07T12:51:30.356Z,929.55
2018-03-07T12:52:30.349Z,929.59
2018-03-07T12:53:30.348Z,929.61
2018-03-07T12:54:30.345Z,929.58
2018-03-07T12:55:30.345Z,929.58
2018-03-07T12:56:30.342Z,929.61
2018-03-07T12:57:30.336Z,929.59
2018-03-07T12:58:30.335Z,929.61
2018-03-07T12:59:30.351Z,929.66
2018-03-07T13:00:30.328Z,929.61
2018-03-07T13:01:30.341Z,929.62
2018-03-07T13:02:30.325Z,929.61
2018-03-07T13:03:30.323Z,929.64
2018-03-07T13:04:30.317Z,929.56
2018-03-07T13:05:30.315Z,929.63
2018-03-07T13:06:30.313Z,929.58
2018-03-07T13:07:30.311Z,929.62
2018-03-07T13:08:30.304Z,929.67
2018-03-07T13:09:30.304Z,929.66
2018-03-07T13:10:30.309Z,929.69
2018-03-07T13:11:30.300Z,929.64
2018-03-07T13:12:30.297Z,929.69
2018-03-07T13:13:30.294Z,929.75
2018-03-07T13:14:30.292Z,929.76
2018-03-07T13:15:30.290Z,929.74
2018-03-07T13:16:30.286Z,929.76
2018-03-07T13:17:30.283Z,929.83
2018-03-07T13:18:30.282Z,929.68
2018-03-07T13:19:30.309Z,929.71
2018-03-07T13:20:30.288Z,929.76
2018-03-07T13:21:30.273Z,929.80
2018-03-07T13:22:30.269Z,929.75
2018-03-07T13:23:30.265Z,929.78
2018-03-07T13:24:30.262Z,929.75
2018-03-07T13:25:30.259Z,929.80
2018-03-07T13:26:30.255Z,929.75
2018-03-07T13:27:30.251Z,929.81
2018-03-07T13:28:30.255Z,929.78
2018-03-07T13:29:30.245Z,929.78
2018-03-07T13:30:30.243Z,929.79
2018-03-07T13:31:30.241Z,929.82
2018-03-07T13:32:30.249Z,929.80
2018-03-07T13:33:30.234Z,929.82
2018-03-07T13:34:30.231Z,929.77
2018-03-07T13:35:30.227Z,929.81
2018-03-07T13:36:30.226Z,929.79
2018-03-07T13:37:30.225Z,929.76
2018-03-07T13:38:30.249Z,929.79
2018-03-07T13:39:30.214Z,929.76
2018-03-07T13:40:30.214Z,929.78
2018-03-07T13:41:30.209Z,929.78